createdAt,value
2023-01-29T00:03:12.523Z,100051.52
2023-01-29T00:07:11.475Z,100057.06
2023-01-29T00:11:15.445Z,100056.19
2023-01-29T00:15:13.439Z,100055.14
2023-01-29T00:19:11.461Z,100051.75
2023-01-29T00:23:09.448Z,100055.18
2023-01-29T00:27:07.427Z,100052.20
2023-01-29T00:31:05.463Z,100052.81
2023-01-29T00:35:03.423Z,100060.94
2023-01-29T00:39:06.397Z,100060.84
2023-01-29T00:43:22.406Z,100059.25
2023-01-29T00:47:34.550Z,100062.25
2023-01-29T00:51:32.533Z,100064.47
2023-01-29T00:55:30.413Z,100051.70
2023-01-29T00:59:28.455Z,100042.58
2023-01-29T01:03:26.415Z,100041.55
2023-01-29T01:07:24.484Z,100046.37
2023-01-29T01:11:22.379Z,100038.02
2023-01-29T01:15:20.377Z,100024.64
2023-01-29T01:19:20.466Z,100010.52
2023-01-29T01:23:18.434Z,100011.31
2023-01-29T01:27:16.347Z,100009.48
2023-01-29T01:31:26.439Z,100016.50
2023-01-29T01:35:26.329Z,100015.17
2023-01-29T01:39:24.380Z,100011.33
2023-01-29T01:43:24.411Z,100008.61
2023-01-29T01:47:22.338Z,100005.27
2023-01-29T01:51:20.305Z,100015.83
2023-01-29T01:55:18.390Z,100023.47
2023-01-29T01:59:16.300Z,100023.18
2023-01-29T02:03:34.380Z,100020.71
2023-01-29T02:07:49.303Z,100023.11
2023-01-29T02:11:47.324Z,100030.09
2023-01-29T02:15:48.270Z,100030.83
2023-01-29T02:20:15.670Z,100028.23
2023-01-29T02:24:37.300Z,100022.21
2023-01-29T02:28:41.284Z,100027.90
2023-01-29T02:33:09.228Z,100020.67
2023-01-29T02:37:18.310Z,100023.82
2023-01-29T02:41:21.216Z,100021.06
2023-01-29T02:45:30.256Z,100016.15
2023-01-29T02:49:40.242Z,100016.87
2023-01-29T02:53:55.217Z,100019.91
2023-01-29T02:57:58.194Z,100019.58
2023-01-29T03:02:05.329Z,100012.14
2023-01-29T03:06:13.227Z,100005.45
2023-01-29T03:10:12.189Z,100006.85
2023-01-29T03:14:23.188Z,100007.93
2023-01-29T03:18:26.189Z,100015.13
2023-01-29T03:22:30.176Z,100014.64
2023-01-29T03:26:51.210Z,100017.55
2023-01-29T03:31:19.234Z,100022.52
2023-01-29T03:35:27.231Z,100023.14
2023-01-29T03:39:25.183Z,100022.02
2023-01-29T03:43:33.233Z,100022.02
2023-01-29T03:47:39.159Z,100018.05
2023-01-29T03:51:48.182Z,100023.29
2023-01-29T03:56:14.110Z,100023.83
2023-01-29T04:00:22.127Z,100015.57
2023-01-29T04:04:48.103Z,100008.11
2023-01-29T04:08:51.201Z,100015.11
2023-01-29T04:13:02.170Z,100020.21
2023-01-29T04:17:05.137Z,100015.98
2023-01-29T04:21:10.105Z,100009.31
2023-01-29T04:25:09.094Z,99999.33
2023-01-29T04:29:38.092Z,99986.70
2023-01-29T04:33:51.092Z,99986.77
2023-01-29T04:37:59.062Z,99989.38
2023-01-29T04:42:28.103Z,99991.55
2023-01-29T04:46:33.050Z,99993.77
2023-01-29T04:50:53.073Z,99986.36
2023-01-29T04:55:20.014Z,99984.30
2023-01-29T04:59:34.054Z,99992.85
2023-01-29T05:03:32.021Z,99991.42
2023-01-29T05:07:32.059Z,99995.86
2023-01-29T05:11:31.030Z,99995.80
2023-01-29T05:15:38.086Z,99990.46
2023-01-29T05:19:36.218Z,99996.96
2023-01-29T05:23:37.026Z,100000.95
2023-01-29T05:28:03.005Z,100002.65
2023-01-29T05:32:00.986Z,99999.23
2023-01-29T05:35:58.978Z,99998.69
2023-01-29T05:39:56.978Z,99998.31
2023-01-29T05:43:54.980Z,99995.38
2023-01-29T05:47:52.967Z,99998.45
2023-01-29T05:51:50.963Z,99999.18
2023-01-29T05:55:49.072Z,99999.73
2023-01-29T05:59:46.914Z,100009.11
2023-01-29T06:03:45.003Z,100010.59
2023-01-29T06:07:43.773Z,100014.70
2023-01-29T06:11:42.084Z,100019.20
2023-01-29T06:15:39.972Z,100013.98
2023-01-29T06:19:38.003Z,100008.10
2023-01-29T06:23:35.910Z,100004.66
2023-01-29T06:27:33.988Z,100000.45
2023-01-29T06:31:39.821Z,99996.38
2023-01-29T06:35:37.943Z,99995.85
2023-01-29T06:39:35.916Z,99999.34
2023-01-29T06:43:34.009Z,99996.98
2023-01-29T06:47:31.919Z,99991.11
2023-01-29T06:51:30.065Z,99992.73
2023-01-29T06:55:27.930Z,99993.45
2023-01-29T06:59:25.921Z,99995.33
2023-01-29T07:03:24.858Z,100002.27
2023-01-29T07:07:22.995Z,100004.08
2023-01-29T07:11:21.849Z,100008.94
2023-01-29T07:15:19.984Z,100012.31
2023-01-29T07:19:18.026Z,100015.75
2023-01-29T07:23:15.932Z,100014.86
2023-01-29T07:27:13.826Z,100019.39
2023-01-29T07:31:13.893Z,100016.32
2023-01-29T07:35:11.816Z,100016.71
2023-01-29T07:39:09.892Z,100019.13
2023-01-29T07:43:15.870Z,100022.11
2023-01-29T07:47:15.220Z,100027.55
2023-01-29T07:51:13.764Z,100027.17
2023-01-29T07:55:11.821Z,100033.02
2023-01-29T07:59:10.864Z,100032.04
2023-01-29T08:03:08.764Z,100034.31
2023-01-29T08:07:06.748Z,100031.27
2023-01-29T08:11:04.751Z,100027.31
2023-01-29T08:15:02.808Z,100022.48
2023-01-29T08:19:00.949Z,100017.77
2023-01-29T08:22:58.727Z,100015.47
2023-01-29T08:26:56.806Z,100014.77
2023-01-29T08:30:54.744Z,100009.83
2023-01-29T08:34:52.861Z,100008.76
2023-01-29T08:38:50.746Z,100005.46
2023-01-29T08:42:48.701Z,100002.08
2023-01-29T08:46:47.702Z,100008.96
2023-01-29T08:50:45.737Z,100006.09
2023-01-29T08:54:43.706Z,100004.03
2023-01-29T08:58:41.771Z,99990.36
2023-01-29T09:02:39.759Z,99992.55
2023-01-29T09:06:37.686Z,99988.34
2023-01-29T09:10:35.689Z,99988.84
2023-01-29T09:14:34.656Z,99992.80
2023-01-29T09:18:32.785Z,99989.94
2023-01-29T09:22:30.757Z,99989.14
2023-01-29T09:26:28.739Z,99977.81
2023-01-29T09:30:26.642Z,99972.97
2023-01-29T09:34:24.635Z,99965.16
2023-01-29T09:38:23.695Z,99956.85
2023-01-29T09:42:50.619Z,99955.34
2023-01-29T09:46:55.659Z,99949.21
2023-01-29T09:50:57.661Z,99946.01
2023-01-29T09:55:17.918Z,99935.70
2023-01-29T09:59:15.597Z,99931.02
2023-01-29T10:03:21.663Z,99922.98
2023-01-29T10:07:28.579Z,99904.65
2023-01-29T10:11:44.616Z,99889.55
2023-01-29T10:16:04.699Z,99886.35
2023-01-29T10:20:11.611Z,99876.43
2023-01-29T10:24:26.576Z,99872.50
2023-01-29T10:28:40.685Z,99864.11
2023-01-29T10:32:41.572Z,99854.60
2023-01-29T10:36:46.586Z,99849.20
2023-01-29T10:40:53.556Z,99841.58
2023-01-29T10:45:26.815Z,99837.09
2023-01-29T10:49:10.029Z,99831.84
2023-01-29T10:52:39.408Z,99824.86
2023-01-29T10:56:23.189Z,99824.05
2023-01-29T10:59:56.752Z,99823.54
2023-01-29T11:03:28.699Z,99817.03
2023-01-29T11:06:52.966Z,99816.34
2023-01-29T11:10:22.449Z,99806.98
2023-01-29T11:13:57.273Z,99803.55
2023-01-29T11:17:26.324Z,99801.17
2023-01-29T11:21:03.163Z,99793.02
2023-01-29T11:24:27.496Z,99795.09
2023-01-29T11:27:55.640Z,99797.59
2023-01-29T11:31:39.543Z,99797.16
2023-01-29T11:35:07.442Z,99795.70
2023-01-29T11:38:31.379Z,99787.87
2023-01-29T11:42:01.159Z,99787.77
2023-01-29T11:45:30.049Z,99778.02
2023-01-29T11:48:59.270Z,99773.78
2023-01-29T11:52:42.139Z,99767.68
2023-01-29T11:56:31.193Z,99762.55
2023-01-29T11:59:58.021Z,99758.36
2023-01-29T12:03:28.741Z,99749.88
2023-01-29T12:06:54.446Z,99743.86
2023-01-29T12:10:35.676Z,99741.94
2023-01-29T12:14:05.139Z,99737.91
2023-01-29T12:17:35.234Z,99732.85
2023-01-29T12:21:05.735Z,99728.35
2023-01-29T12:24:43.130Z,99726.02
2023-01-29T12:28:23.696Z,99722.84
2023-01-29T12:32:06.351Z,99725.30
2023-01-29T12:35:39.757Z,99726.05
2023-01-29T12:39:03.714Z,99716.63
2023-01-29T12:42:27.809Z,99717.86
2023-01-29T12:45:56.561Z,99705.05
2023-01-29T12:49:25.699Z,99700.27
2023-01-29T12:52:55.742Z,99700.90
2023-01-29T12:56:42.555Z,99699.69
2023-01-29T13:00:15.351Z,99699.88
2023-01-29T13:03:59.839Z,99701.59
2023-01-29T13:07:54.413Z,99696.02
2023-01-29T13:12:01.390Z,99687.76
2023-01-29T13:15:59.357Z,99679.58
2023-01-29T13:20:00.323Z,99670.15
2023-01-29T13:24:01.329Z,99661.39
2023-01-29T13:28:00.367Z,99659.59
2023-01-29T13:32:03.404Z,99650.10
2023-01-29T13:36:01.337Z,99648.27
2023-01-29T13:40:08.397Z,99642.91
2023-01-29T13:44:06.335Z,99634.14
2023-01-29T13:48:06.322Z,99635.66
2023-01-29T13:52:04.392Z,99640.65
2023-01-29T13:56:02.411Z,99650.29
2023-01-29T14:00:08.305Z,99640.64
2023-01-29T14:04:06.299Z,99641.20
2023-01-29T14:08:06.267Z,99637.29
2023-01-29T14:12:04.267Z,99643.59
2023-01-29T14:16:22.312Z,99640.67
2023-01-29T14:20:45.037Z,99650.89
2023-01-29T14:24:45.281Z,99657.02
2023-01-29T14:28:45.253Z,99654.92
2023-01-29T14:36:57.279Z,99646.78
2023-01-29T14:40:55.212Z,99640.27
2023-01-29T14:45:00.283Z,99637.64
2023-01-29T14:49:02.262Z,99637.66
2023-01-29T14:53:02.299Z,99643.59
2023-01-29T14:57:12.194Z,99641.46
2023-01-29T15:01:12.263Z,99630.60
2023-01-29T15:05:13.304Z,99629.44
2023-01-29T15:09:22.031Z,99629.02
2023-01-29T15:13:34.161Z,99634.34
2023-01-29T15:17:47.235Z,99632.63
2023-01-29T15:21:45.177Z,99636.11
2023-01-29T15:25:50.195Z,99633.66
2023-01-29T15:29:48.162Z,99642.23
2023-01-29T15:33:48.171Z,99642.95
2023-01-29T15:37:50.163Z,99650.30
2023-01-29T15:41:48.191Z,99650.48
2023-01-29T15:45:48.206Z,99647.50
2023-01-29T15:49:49.139Z,99634.72
2023-01-29T15:53:56.126Z,99624.24
2023-01-29T15:57:56.423Z,99616.74
2023-01-29T16:01:54.221Z,99614.96
2023-01-29T16:05:59.177Z,99619.33
2023-01-29T16:09:57.140Z,99616.78
2023-01-29T16:13:57.385Z,99617.59
2023-01-29T16:17:57.081Z,99620.95
2023-01-29T16:21:58.126Z,99611.52
2023-01-29T16:25:56.066Z,99611.86
2023-01-29T16:29:54.121Z,99611.69
2023-01-29T16:33:56.074Z,99613.75
2023-01-29T16:37:54.076Z,99620.49
2023-01-29T16:41:52.076Z,99623.79
2023-01-29T16:45:52.015Z,99619.16
2023-01-29T16:49:53.105Z,99605.83
2023-01-29T16:53:51.076Z,99602.39
2023-01-29T16:57:49.071Z,99596.89
2023-01-29T17:01:49.209Z,99601.48
2023-01-29T17:05:55.199Z,99598.02
2023-01-29T17:09:53.131Z,99598.98
2023-01-29T17:13:51.111Z,99601.52
2023-01-29T17:17:50.025Z,99602.18
2023-01-29T17:21:48.020Z,99596.05
2023-01-29T17:25:46.277Z,99579.39
2023-01-29T17:29:45.963Z,99577.65
2023-01-29T17:33:44.049Z,99575.68
2023-01-29T17:37:42.961Z,99568.30
2023-01-29T17:41:45.046Z,99578.20
2023-01-29T17:45:43.997Z,99573.38
2023-01-29T17:49:43.979Z,99574.17
2023-01-29T17:53:45.915Z,99572.06
2023-01-29T17:57:44.038Z,99573.18
2023-01-29T18:01:42.033Z,99576.30
2023-01-29T18:05:40.007Z,99580.23
2023-01-29T18:09:37.970Z,99578.69
2023-01-29T18:13:35.980Z,99569.64
2023-01-29T18:17:35.048Z,99566.39
2023-01-29T18:21:33.007Z,99558.47
2023-01-29T18:25:31.008Z,99558.38
2023-01-29T18:29:29.207Z,99551.33
2023-01-29T18:33:26.900Z,99541.23
2023-01-29T18:37:24.939Z,99534.08
2023-01-29T18:41:24.860Z,99528.16
2023-01-29T18:45:22.907Z,99527.76
2023-01-29T18:49:20.872Z,99523.52
2023-01-29T18:53:19.113Z,99511.95
2023-01-29T18:58:33.465Z,99507.09
2023-01-29T19:01:34.870Z,99494.10
2023-01-29T19:05:32.846Z,99488.33
2023-01-29T19:09:30.923Z,99486.60
2023-01-29T19:13:28.845Z,99481.35
2023-01-29T19:17:26.979Z,99477.16
2023-01-29T19:21:26.807Z,99477.64
2023-01-29T19:25:25.831Z,99469.95
2023-01-29T19:29:23.861Z,99465.24
2023-01-29T19:33:22.077Z,99464.50
2023-01-29T19:37:20.995Z,99467.41
2023-01-29T19:41:18.921Z,99469.80
2023-01-29T19:45:17.107Z,99463.86
2023-01-29T19:49:36.791Z,99458.40
2023-01-29T19:53:34.874Z,99454.58
2023-01-29T19:57:13.209Z,99448.77
2023-01-29T20:00:37.328Z,99449.42
2023-01-29T20:04:03.423Z,99451.32
2023-01-29T20:07:29.146Z,99452.60
2023-01-29T20:10:53.289Z,99442.89
2023-01-29T20:14:17.221Z,99434.50
2023-01-29T20:17:43.746Z,99429.73
2023-01-29T20:21:15.467Z,99437.09
2023-01-29T20:24:42.496Z,99437.42
2023-01-29T20:28:11.871Z,99438.08
2023-01-29T20:31:37.147Z,99440.37
2023-01-29T20:35:02.207Z,99437.95
2023-01-29T20:38:32.002Z,99436.31
2023-01-29T20:41:57.356Z,99432.27
2023-01-29T20:45:22.148Z,99430.38
2023-01-29T20:48:46.149Z,99427.33
2023-01-29T20:52:12.638Z,99421.41
2023-01-29T20:55:36.723Z,99416.14
2023-01-29T20:59:01.167Z,99413.81
2023-01-29T21:02:25.349Z,99410.69
2023-01-29T21:05:50.354Z,99406.63
2023-01-29T21:09:14.756Z,99409.01
2023-01-29T21:12:38.669Z,99404.70
2023-01-29T21:16:04.098Z,99396.87
2023-01-29T21:19:29.315Z,99399.79
2023-01-29T21:22:54.464Z,99389.72
2023-01-29T21:26:19.042Z,99388.42
2023-01-29T21:29:43.350Z,99384.95
2023-01-29T21:33:07.481Z,99385.10
2023-01-29T21:36:32.447Z,99380.28
2023-01-29T21:39:56.635Z,99373.52
2023-01-29T21:43:20.458Z,99375.59
2023-01-29T21:46:44.279Z,99378.12
2023-01-29T21:50:09.794Z,99379.96
2023-01-29T21:53:33.754Z,99381.34
2023-01-29T21:56:59.235Z,99377.53
2023-01-29T22:00:25.667Z,99370.09
2023-01-29T22:03:49.678Z,99371.22
2023-01-29T22:07:15.146Z,99364.96
2023-01-29T22:10:39.386Z,99363.84
2023-01-29T22:14:03.460Z,99361.33
2023-01-29T22:17:28.356Z,99356.01
2023-01-29T22:20:57.090Z,99347.98
2023-01-29T22:24:22.439Z,99345.41
2023-01-29T22:27:47.985Z,99338.27
2023-01-29T22:31:11.967Z,99326.93
2023-01-29T22:34:35.789Z,99322.44
2023-01-29T22:37:59.726Z,99317.98
2023-01-29T22:41:23.686Z,99309.14
2023-01-29T22:44:48.181Z,99309.31
2023-01-29T22:48:12.546Z,99307.73
2023-01-29T22:51:36.380Z,99307.21
2023-01-29T22:55:00.227Z,99304.10
2023-01-29T22:58:24.205Z,99292.21
2023-01-29T23:01:48.368Z,99288.84
2023-01-29T23:05:12.188Z,99280.77
2023-01-29T23:08:36.374Z,99277.67
2023-01-29T23:12:01.481Z,99271.23
2023-01-29T23:15:25.367Z,99262.93
2023-01-29T23:18:54.490Z,99252.93
2023-01-29T23:22:18.460Z,99251.40
2023-01-29T23:25:59.824Z,99249.09
2023-01-29T23:29:24.169Z,99241.92
2023-01-29T23:32:48.052Z,99235.23
2023-01-29T23:36:12.079Z,99218.88
2023-01-29T23:39:36.005Z,99215.14
2023-01-29T23:42:59.899Z,99212.50
2023-01-29T23:46:24.034Z,99207.75
2023-01-29T23:49:48.000Z,99200.28
2023-01-29T23:53:11.860Z,99191.69
2023-01-29T23:56:35.779Z,99183.03
2023-01-29T23:59:59.768Z,99180.23
